sensor_id;sensor_type;location;lat;lon;timestamp;P1;durP1;ratioP1;P2;durP2;ratioP2
75639;SDS011;64233;51.486;6.332;2023-06-26T00:01:06;9.93;;;8.32;;
75639;SDS011;64233;51.486;6.332;2023-06-26T00:03:31;11.43;;;8.65;;
75639;SDS011;64233;51.486;6.332;2023-06-26T00:05:58;9.70;;;7.75;;
75639;SDS011;64233;51.486;6.332;2023-06-26T00:08:25;9.02;;;8.07;;
75639;SDS011;64233;51.486;6.332;2023-06-26T00:10:51;11.02;;;8.52;;
75639;SDS011;64233;51.486;6.332;2023-06-26T00:13:16;9.60;;;7.93;;
75639;SDS011;64233;51.486;6.332;2023-06-26T00:15:41;11.80;;;8.82;;
75639;SDS011;64233;51.486;6.332;2023-06-26T00:18:07;9.73;;;7.88;;
75639;SDS011;64233;51.486;6.332;2023-06-26T00:20:32;10.00;;;8.55;;
75639;SDS011;64233;51.486;6.332;2023-06-26T00:22:58;8.43;;;7.45;;
75639;SDS011;64233;51.486;6.332;2023-06-26T00:25:24;11.80;;;8.25;;
75639;SDS011;64233;51.486;6.332;2023-06-26T00:27:49;11.07;;;8.37;;
75639;SDS011;64233;51.486;6.332;2023-06-26T00:30:14;9.97;;;8.33;;
75639;SDS011;64233;51.486;6.332;2023-06-26T00:32:39;10.38;;;8.10;;
75639;SDS011;64233;51.486;6.332;2023-06-26T00:35:05;10.57;;;8.37;;
75639;SDS011;64233;51.486;6.332;2023-06-26T00:37:30;11.45;;;8.13;;
75639;SDS011;64233;51.486;6.332;2023-06-26T00:39:55;10.20;;;8.40;;
75639;SDS011;64233;51.486;6.332;2023-06-26T00:42:21;11.10;;;9.05;;
75639;SDS011;64233;51.486;6.332;2023-06-26T00:44:46;14.25;;;8.60;;
75639;SDS011;64233;51.486;6.332;2023-06-26T00:47:12;12.10;;;9.33;;
75639;SDS011;64233;51.486;6.332;2023-06-26T00:49:40;8.88;;;7.38;;
75639;SDS011;64233;51.486;6.332;2023-06-26T00:52:06;10.05;;;8.25;;
75639;SDS011;64233;51.486;6.332;2023-06-26T00:54:31;9.25;;;8.00;;
75639;SDS011;64233;51.486;6.332;2023-06-26T00:56:57;12.02;;;8.45;;
75639;SDS011;64233;51.486;6.332;2023-06-26T00:59:22;10.32;;;8.18;;
75639;SDS011;64233;51.486;6.332;2023-06-26T01:01:47;10.45;;;8.85;;
75639;SDS011;64233;51.486;6.332;2023-06-26T01:04:13;11.10;;;9.32;;
75639;SDS011;64233;51.486;6.332;2023-06-26T01:06:42;10.30;;;7.28;;
75639;SDS011;64233;51.486;6.332;2023-06-26T01:09:14;11.07;;;8.20;;
75639;SDS011;64233;51.486;6.332;2023-06-26T01:11:41;10.07;;;8.50;;
75639;SDS011;64233;51.486;6.332;2023-06-26T01:14:06;10.18;;;7.82;;
75639;SDS011;64233;51.486;6.332;2023-06-26T01:16:32;13.18;;;7.85;;
75639;SDS011;64233;51.486;6.332;2023-06-26T01:18:57;11.25;;;7.93;;
75639;SDS011;64233;51.486;6.332;2023-06-26T01:21:24;10.93;;;8.13;;
75639;SDS011;64233;51.486;6.332;2023-06-26T01:26:45;12.18;;;8.43;;
75639;SDS011;64233;51.486;6.332;2023-06-26T01:29:12;12.75;;;8.85;;
75639;SDS011;64233;51.486;6.332;2023-06-26T01:31:40;11.60;;;8.45;;
75639;SDS011;64233;51.486;6.332;2023-06-26T01:34:06;14.60;;;8.65;;
75639;SDS011;64233;51.486;6.332;2023-06-26T01:36:32;10.15;;;8.75;;
75639;SDS011;64233;51.486;6.332;2023-06-26T01:38:57;12.75;;;9.00;;
75639;SDS011;64233;51.486;6.332;2023-06-26T01:41:22;11.13;;;8.23;;
75639;SDS011;64233;51.486;6.332;2023-06-26T01:49:16;10.10;;;8.00;;
75639;SDS011;64233;51.486;6.332;2023-06-26T01:51:51;11.13;;;9.70;;
75639;SDS011;64233;51.486;6.332;2023-06-26T01:54:39;10.38;;;8.68;;
75639;SDS011;64233;51.486;6.332;2023-06-26T01:57:11;11.10;;;8.23;;
75639;SDS011;64233;51.486;6.332;2023-06-26T01:59:37;10.00;;;8.05;;
75639;SDS011;64233;51.486;6.332;2023-06-26T02:02:08;10.55;;;7.85;;
75639;SDS011;64233;51.486;6.332;2023-06-26T02:04:33;8.45;;;7.18;;
75639;SDS011;64233;51.486;6.332;2023-06-26T02:06:59;10.95;;;8.23;;
75639;SDS011;64233;51.486;6.332;2023-06-26T02:09:24;10.77;;;8.10;;
75639;SDS011;64233;51.486;6.332;2023-06-26T02:11:49;10.13;;;7.77;;
75639;SDS011;64233;51.486;6.332;2023-06-26T02:14:14;10.03;;;7.50;;
75639;SDS011;64233;51.486;6.332;2023-06-26T02:16:40;10.37;;;6.73;;
75639;SDS011;64233;51.486;6.332;2023-06-26T02:19:05;8.02;;;6.63;;
75639;SDS011;64233;51.486;6.332;2023-06-26T02:21:30;7.63;;;6.80;;
75639;SDS011;64233;51.486;6.332;2023-06-26T02:23:55;9.23;;;7.50;;
75639;SDS011;64233;51.486;6.332;2023-06-26T02:26:21;9.50;;;7.33;;
75639;SDS011;64233;51.486;6.332;2023-06-26T02:28:46;13.23;;;8.03;;
75639;SDS011;64233;51.486;6.332;2023-06-26T02:31:11;10.70;;;8.23;;
75639;SDS011;64233;51.486;6.332;2023-06-26T02:33:36;10.75;;;7.88;;
75639;SDS011;64233;51.486;6.332;2023-06-26T02:36:02;13.38;;;8.18;;
75639;SDS011;64233;51.486;6.332;2023-06-26T02:38:27;11.57;;;7.78;;
75639;SDS011;64233;51.486;6.332;2023-06-26T02:40:52;8.77;;;7.22;;
75639;SDS011;64233;51.486;6.332;2023-06-26T02:43:18;8.95;;;6.75;;
75639;SDS011;64233;51.486;6.332;2023-06-26T02:45:43;12.00;;;7.40;;
75639;SDS011;64233;51.486;6.332;2023-06-26T02:48:08;8.75;;;6.82;;
75639;SDS011;64233;51.486;6.332;2023-06-26T02:50:33;9.07;;;6.23;;
75639;SDS011;64233;51.486;6.332;2023-06-26T02:52:59;7.80;;;6.43;;
75639;SDS011;64233;51.486;6.332;2023-06-26T02:55:24;9.73;;;6.10;;
75639;SDS011;64233;51.486;6.332;2023-06-26T02:57:50;7.95;;;5.75;;
75639;SDS011;64233;51.486;6.332;2023-06-26T03:00:15;11.25;;;5.88;;
75639;SDS011;64233;51.486;6.332;2023-06-26T03:02:41;7.75;;;5.53;;
75639;SDS011;64233;51.486;6.332;2023-06-26T03:05:06;7.25;;;5.60;;
75639;SDS011;64233;51.486;6.332;2023-06-26T03:07:31;9.00;;;5.97;;
75639;SDS011;64233;51.486;6.332;2023-06-26T03:09:57;9.45;;;5.60;;
75639;SDS011;64233;51.486;6.332;2023-06-26T03:12:22;11.25;;;5.63;;
75639;SDS011;64233;51.486;6.332;2023-06-26T03:14:48;6.73;;;4.63;;
75639;SDS011;64233;51.486;6.332;2023-06-26T03:17:13;6.97;;;4.35;;
75639;SDS011;64233;51.486;6.332;2023-06-26T03:19:38;7.93;;;5.28;;
75639;SDS011;64233;51.486;6.332;2023-06-26T03:22:03;6.70;;;4.55;;
75639;SDS011;64233;51.486;6.332;2023-06-26T03:24:29;9.05;;;4.75;;
75639;SDS011;64233;51.486;6.332;2023-06-26T03:26:57;6.18;;;4.72;;
75639;SDS011;64233;51.486;6.332;2023-06-26T03:29:22;8.03;;;5.40;;
75639;SDS011;64233;51.486;6.332;2023-06-26T03:31:48;8.48;;;5.05;;
75639;SDS011;64233;51.486;6.332;2023-06-26T03:34:13;8.97;;;5.43;;
75639;SDS011;64233;51.486;6.332;2023-06-26T03:36:38;9.73;;;5.50;;
75639;SDS011;64233;51.486;6.332;2023-06-26T03:39:04;7.73;;;5.03;;
75639;SDS011;64233;51.486;6.332;2023-06-26T03:41:29;7.47;;;5.13;;
75639;SDS011;64233;51.486;6.332;2023-06-26T03:43:54;9.70;;;5.07;;
75639;SDS011;64233;51.486;6.332;2023-06-26T03:46:21;9.13;;;5.65;;
75639;SDS011;64233;51.486;6.332;2023-06-26T03:48:46;8.15;;;5.38;;
75639;SDS011;64233;51.486;6.332;2023-06-26T03:51:12;7.90;;;4.47;;
75639;SDS011;64233;51.486;6.332;2023-06-26T03:53:37;8.00;;;4.55;;
75639;SDS011;64233;51.486;6.332;2023-06-26T03:56:02;5.65;;;4.20;;
75639;SDS011;64233;51.486;6.332;2023-06-26T03:58:28;5.95;;;4.22;;
75639;SDS011;64233;51.486;6.332;2023-06-26T04:00:53;9.40;;;3.85;;
75639;SDS011;64233;51.486;6.332;2023-06-26T04:03:18;5.72;;;3.08;;
75639;SDS011;64233;51.486;6.332;2023-06-26T04:05:44;6.68;;;3.55;;
75639;SDS011;64233;51.486;6.332;2023-06-26T04:08:09;11.35;;;4.18;;
75639;SDS011;64233;51.486;6.332;2023-06-26T04:10:35;8.48;;;3.85;;
75639;SDS011;64233;51.486;6.332;2023-06-26T04:13:01;6.32;;;3.88;;
75639;SDS011;64233;51.486;6.332;2023-06-26T04:15:26;5.88;;;3.08;;
75639;SDS011;64233;51.486;6.332;2023-06-26T04:17:51;5.33;;;3.27;;
75639;SDS011;64233;51.486;6.332;2023-06-26T04:20:17;9.67;;;3.90;;
75639;SDS011;64233;51.486;6.332;2023-06-26T04:22:42;5.35;;;3.40;;
75639;SDS011;64233;51.486;6.332;2023-06-26T04:25:08;6.10;;;4.20;;
75639;SDS011;64233;51.486;6.332;2023-06-26T04:27:33;5.88;;;3.47;;
75639;SDS011;64233;51.486;6.332;2023-06-26T04:29:58;6.97;;;3.90;;
75639;SDS011;64233;51.486;6.332;2023-06-26T04:32:24;7.10;;;4.20;;
75639;SDS011;64233;51.486;6.332;2023-06-26T04:34:49;6.43;;;3.70;;
75639;SDS011;64233;51.486;6.332;2023-06-26T04:37:14;6.63;;;4.82;;
75639;SDS011;64233;51.486;6.332;2023-06-26T04:39:43;7.78;;;3.65;;
75639;SDS011;64233;51.486;6.332;2023-06-26T04:42:08;8.60;;;4.00;;
75639;SDS011;64233;51.486;6.332;2023-06-26T04:44:35;6.55;;;3.75;;
75639;SDS011;64233;51.486;6.332;2023-06-26T04:47:02;12.80;;;3.88;;
75639;SDS011;64233;51.486;6.332;2023-06-26T04:49:28;8.10;;;3.97;;
75639;SDS011;64233;51.486;6.332;2023-06-26T04:51:54;9.15;;;3.55;;
75639;SDS011;64233;51.486;6.332;2023-06-26T04:54:20;7.45;;;3.97;;
75639;SDS011;64233;51.486;6.332;2023-06-26T04:56:45;8.13;;;3.73;;
75639;SDS011;64233;51.486;6.332;2023-06-26T04:59:12;5.95;;;3.90;;
75639;SDS011;64233;51.486;6.332;2023-06-26T05:01:38;9.20;;;4.20;;
75639;SDS011;64233;51.486;6.332;2023-06-26T05:04:04;6.65;;;4.05;;
75639;SDS011;64233;51.486;6.332;2023-06-26T05:06:30;8.77;;;3.90;;
75639;SDS011;64233;51.486;6.332;2023-06-26T05:08:55;6.53;;;3.88;;
75639;SDS011;64233;51.486;6.332;2023-06-26T05:11:20;7.17;;;4.27;;
75639;SDS011;64233;51.486;6.332;2023-06-26T05:13:46;9.88;;;4.00;;
75639;SDS011;64233;51.486;6.332;2023-06-26T05:16:11;7.32;;;3.67;;
75639;SDS011;64233;51.486;6.332;2023-06-26T05:18:37;10.82;;;4.15;;
75639;SDS011;64233;51.486;6.332;2023-06-26T05:21:02;6.28;;;3.45;;
75639;SDS011;64233;51.486;6.332;2023-06-26T05:23:31;8.43;;;4.65;;
75639;SDS011;64233;51.486;6.332;2023-06-26T05:25:58;9.52;;;3.92;;
75639;SDS011;64233;51.486;6.332;2023-06-26T05:28:24;8.00;;;4.97;;
75639;SDS011;64233;51.486;6.332;2023-06-26T05:30:50;7.45;;;3.90;;
75639;SDS011;64233;51.486;6.332;2023-06-26T05:33:17;9.13;;;5.45;;
75639;SDS011;64233;51.486;6.332;2023-06-26T05:35:43;8.57;;;3.58;;
75639;SDS011;64233;51.486;6.332;2023-06-26T05:38:10;9.43;;;4.13;;
75639;SDS011;64233;51.486;6.332;2023-06-26T05:40:35;7.30;;;4.15;;
75639;SDS011;64233;51.486;6.332;2023-06-26T05:43:01;9.15;;;4.03;;
75639;SDS011;64233;51.486;6.332;2023-06-26T05:45:27;11.98;;;4.05;;
75639;SDS011;64233;51.486;6.332;2023-06-26T05:47:52;13.70;;;3.77;;
75639;SDS011;64233;51.486;6.332;2023-06-26T05:50:18;10.80;;;4.43;;
75639;SDS011;64233;51.486;6.332;2023-06-26T05:52:44;8.55;;;4.00;;
75639;SDS011;64233;51.486;6.332;2023-06-26T05:55:10;7.63;;;4.40;;
75639;SDS011;64233;51.486;6.332;2023-06-26T05:57:36;5.75;;;3.67;;
75639;SDS011;64233;51.486;6.332;2023-06-26T06:00:03;7.40;;;3.58;;
75639;SDS011;64233;51.486;6.332;2023-06-26T06:02:30;8.23;;;4.10;;
75639;SDS011;64233;51.486;6.332;2023-06-26T06:04:56;9.25;;;4.60;;
75639;SDS011;64233;51.486;6.332;2023-06-26T06:07:21;18.00;;;4.38;;
75639;SDS011;64233;51.486;6.332;2023-06-26T06:09:46;8.00;;;4.05;;
75639;SDS011;64233;51.486;6.332;2023-06-26T06:12:12;8.87;;;3.43;;
75639;SDS011;64233;51.486;6.332;2023-06-26T06:14:37;11.20;;;3.77;;
75639;SDS011;64233;51.486;6.332;2023-06-26T06:17:02;8.67;;;3.90;;
75639;SDS011;64233;51.486;6.332;2023-06-26T06:19:28;9.38;;;3.72;;
75639;SDS011;64233;51.486;6.332;2023-06-26T06:21:53;11.33;;;4.47;;
75639;SDS011;64233;51.486;6.332;2023-06-26T06:24:19;9.30;;;4.28;;
75639;SDS011;64233;51.486;6.332;2023-06-26T06:26:44;8.57;;;3.65;;
75639;SDS011;64233;51.486;6.332;2023-06-26T06:29:10;7.80;;;3.72;;
75639;SDS011;64233;51.486;6.332;2023-06-26T06:31:35;7.30;;;3.97;;
75639;SDS011;64233;51.486;6.332;2023-06-26T06:34:00;13.02;;;3.95;;
75639;SDS011;64233;51.486;6.332;2023-06-26T06:36:26;11.23;;;3.80;;
75639;SDS011;64233;51.486;6.332;2023-06-26T06:38:51;6.88;;;4.28;;
75639;SDS011;64233;51.486;6.332;2023-06-26T06:41:17;6.63;;;3.47;;
75639;SDS011;64233;51.486;6.332;2023-06-26T06:43:42;9.60;;;3.72;;
75639;SDS011;64233;51.486;6.332;2023-06-26T06:46:08;6.97;;;3.92;;
75639;SDS011;64233;51.486;6.332;2023-06-26T06:48:33;10.20;;;4.05;;
75639;SDS011;64233;51.486;6.332;2023-06-26T06:50:59;9.93;;;3.67;;
75639;SDS011;64233;51.486;6.332;2023-06-26T06:53:24;8.75;;;3.58;;
75639;SDS011;64233;51.486;6.332;2023-06-26T06:55:49;8.20;;;3.33;;
75639;SDS011;64233;51.486;6.332;2023-06-26T06:58:15;10.32;;;3.58;;
75639;SDS011;64233;51.486;6.332;2023-06-26T07:00:42;7.78;;;3.40;;
75639;SDS011;64233;51.486;6.332;2023-06-26T07:03:07;11.00;;;3.65;;
75639;SDS011;64233;51.486;6.332;2023-06-26T07:05:33;12.85;;;3.17;;
75639;SDS011;64233;51.486;6.332;2023-06-26T07:07:58;6.68;;;3.55;;
75639;SDS011;64233;51.486;6.332;2023-06-26T07:10:23;10.52;;;3.63;;
75639;SDS011;64233;51.486;6.332;2023-06-26T07:12:49;8.80;;;3.50;;
75639;SDS011;64233;51.486;6.332;2023-06-26T07:15:14;6.57;;;3.15;;
75639;SDS011;64233;51.486;6.332;2023-06-26T07:17:39;11.57;;;3.17;;
75639;SDS011;64233;51.486;6.332;2023-06-26T07:20:05;9.38;;;3.75;;
75639;SDS011;64233;51.486;6.332;2023-06-26T07:22:32;6.45;;;3.33;;
75639;SDS011;64233;51.486;6.332;2023-06-26T07:24:58;9.10;;;3.28;;
75639;SDS011;64233;51.486;6.332;2023-06-26T07:27:23;5.87;;;2.93;;
75639;SDS011;64233;51.486;6.332;2023-06-26T07:29:48;7.82;;;2.85;;
75639;SDS011;64233;51.486;6.332;2023-06-26T07:32:13;14.35;;;3.25;;
75639;SDS011;64233;51.486;6.332;2023-06-26T07:34:39;12.73;;;3.93;;
75639;SDS011;64233;51.486;6.332;2023-06-26T07:37:04;7.88;;;3.13;;
75639;SDS011;64233;51.486;6.332;2023-06-26T07:39:29;14.93;;;3.60;;
75639;SDS011;64233;51.486;6.332;2023-06-26T07:41:55;4.70;;;2.83;;
75639;SDS011;64233;51.486;6.332;2023-06-26T07:44:23;7.88;;;3.45;;
75639;SDS011;64233;51.486;6.332;2023-06-26T07:46:48;9.63;;;2.97;;
75639;SDS011;64233;51.486;6.332;2023-06-26T07:49:13;9.07;;;3.58;;
75639;SDS011;64233;51.486;6.332;2023-06-26T07:51:39;8.53;;;2.83;;
75639;SDS011;64233;51.486;6.332;2023-06-26T07:54:04;7.50;;;3.05;;
75639;SDS011;64233;51.486;6.332;2023-06-26T07:56:29;7.40;;;3.08;;
75639;SDS011;64233;51.486;6.332;2023-06-26T07:58:54;11.98;;;3.47;;
75639;SDS011;64233;51.486;6.332;2023-06-26T08:01:22;8.32;;;2.90;;
75639;SDS011;64233;51.486;6.332;2023-06-26T08:03:48;10.23;;;3.10;;
75639;SDS011;64233;51.486;6.332;2023-06-26T08:06:13;10.95;;;4.18;;
75639;SDS011;64233;51.486;6.332;2023-06-26T08:08:39;7.85;;;3.30;;
75639;SDS011;64233;51.486;6.332;2023-06-26T08:11:05;8.52;;;4.00;;
75639;SDS011;64233;51.486;6.332;2023-06-26T08:13:30;8.40;;;3.90;;
75639;SDS011;64233;51.486;6.332;2023-06-26T08:15:55;9.63;;;3.40;;
75639;SDS011;64233;51.486;6.332;2023-06-26T08:18:20;5.40;;;2.78;;
75639;SDS011;64233;51.486;6.332;2023-06-26T08:20:46;7.73;;;2.50;;
75639;SDS011;64233;51.486;6.332;2023-06-26T08:23:11;5.93;;;2.85;;
75639;SDS011;64233;51.486;6.332;2023-06-26T08:25:36;13.32;;;3.05;;
75639;SDS011;64233;51.486;6.332;2023-06-26T08:28:02;11.73;;;3.37;;
75639;SDS011;64233;51.486;6.332;2023-06-26T08:30:28;8.35;;;2.88;;
75639;SDS011;64233;51.486;6.332;2023-06-26T08:32:56;7.47;;;2.88;;
75639;SDS011;64233;51.486;6.332;2023-06-26T08:35:21;7.22;;;2.83;;
75639;SDS011;64233;51.486;6.332;2023-06-26T08:37:47;10.07;;;2.92;;
75639;SDS011;64233;51.486;6.332;2023-06-26T08:40:12;6.47;;;2.75;;
75639;SDS011;64233;51.486;6.332;2023-06-26T08:42:42;6.38;;;3.00;;
75639;SDS011;64233;51.486;6.332;2023-06-26T08:45:07;8.23;;;2.80;;
75639;SDS011;64233;51.486;6.332;2023-06-26T08:47:33;6.57;;;2.53;;
75639;SDS011;64233;51.486;6.332;2023-06-26T08:52:36;7.15;;;2.80;;
75639;SDS011;64233;51.486;6.332;2023-06-26T08:55:06;10.07;;;3.67;;
75639;SDS011;64233;51.486;6.332;2023-06-26T08:57:35;6.10;;;2.55;;
75639;SDS011;64233;51.486;6.332;2023-06-26T09:00:02;7.85;;;3.17;;
75639;SDS011;64233;51.486;6.332;2023-06-26T09:02:28;4.85;;;2.63;;
75639;SDS011;64233;51.486;6.332;2023-06-26T09:04:53;6.50;;;2.78;;
75639;SDS011;64233;51.486;6.332;2023-06-26T09:07:18;9.77;;;2.70;;
75639;SDS011;64233;51.486;6.332;2023-06-26T09:09:44;6.28;;;2.90;;
75639;SDS011;64233;51.486;6.332;2023-06-26T09:12:09;7.45;;;2.75;;
75639;SDS011;64233;51.486;6.332;2023-06-26T09:14:36;9.07;;;2.65;;
75639;SDS011;64233;51.486;6.332;2023-06-26T09:17:02;5.25;;;2.90;;
75639;SDS011;64233;51.486;6.332;2023-06-26T09:19:28;5.47;;;2.75;;
75639;SDS011;64233;51.486;6.332;2023-06-26T09:21:53;4.57;;;2.70;;
75639;SDS011;64233;51.486;6.332;2023-06-26T09:24:19;8.85;;;2.75;;
75639;SDS011;64233;51.486;6.332;2023-06-26T09:26:46;7.35;;;2.83;;
75639;SDS011;64233;51.486;6.332;2023-06-26T09:29:11;4.10;;;2.50;;
75639;SDS011;64233;51.486;6.332;2023-06-26T09:31:39;3.25;;;2.35;;
75639;SDS011;64233;51.486;6.332;2023-06-26T09:34:05;5.20;;;3.10;;
75639;SDS011;64233;51.486;6.332;2023-06-26T09:36:31;4.63;;;3.05;;
75639;SDS011;64233;51.486;6.332;2023-06-26T09:39:02;5.68;;;3.30;;
75639;SDS011;64233;51.486;6.332;2023-06-26T09:41:29;7.97;;;2.85;;
75639;SDS011;64233;51.486;6.332;2023-06-26T09:43:55;6.90;;;3.20;;
75639;SDS011;64233;51.486;6.332;2023-06-26T09:46:26;4.07;;;3.05;;
75639;SDS011;64233;51.486;6.332;2023-06-26T09:51:26;7.30;;;3.30;;
75639;SDS011;64233;51.486;6.332;2023-06-26T09:53:51;5.80;;;3.10;;
75639;SDS011;64233;51.486;6.332;2023-06-26T09:56:16;5.00;;;2.83;;
75639;SDS011;64233;51.486;6.332;2023-06-26T09:58:43;5.18;;;3.00;;
75639;SDS011;64233;51.486;6.332;2023-06-26T10:01:08;5.82;;;2.03;;
75639;SDS011;64233;51.486;6.332;2023-06-26T10:03:34;5.25;;;2.15;;
75639;SDS011;64233;51.486;6.332;2023-06-26T10:06:00;4.63;;;1.40;;
75639;SDS011;64233;51.486;6.332;2023-06-26T10:08:27;2.78;;;1.48;;
75639;SDS011;64233;51.486;6.332;2023-06-26T10:10:54;1.70;;;1.00;;
75639;SDS011;64233;51.486;6.332;2023-06-26T10:13:21;4.95;;;1.30;;
75639;SDS011;64233;51.486;6.332;2023-06-26T10:15:50;3.38;;;1.30;;
75639;SDS011;64233;51.486;6.332;2023-06-26T10:18:16;4.28;;;1.20;;
75639;SDS011;64233;51.486;6.332;2023-06-26T10:20:44;2.40;;;1.40;;
75639;SDS011;64233;51.486;6.332;2023-06-26T10:23:12;1.67;;;1.13;;
75639;SDS011;64233;51.486;6.332;2023-06-26T10:25:40;1.73;;;1.45;;
75639;SDS011;64233;51.486;6.332;2023-06-26T10:28:09;4.65;;;1.58;;
75639;SDS011;64233;51.486;6.332;2023-06-26T10:30:37;4.35;;;1.70;;
75639;SDS011;64233;51.486;6.332;2023-06-26T10:33:04;2.08;;;1.20;;
75639;SDS011;64233;51.486;6.332;2023-06-26T10:35:32;3.13;;;1.20;;
75639;SDS011;64233;51.486;6.332;2023-06-26T10:38:01;3.97;;;1.02;;
75639;SDS011;64233;51.486;6.332;2023-06-26T10:40:40;5.05;;;1.52;;
75639;SDS011;64233;51.486;6.332;2023-06-26T10:43:11;1.38;;;0.80;;
75639;SDS011;64233;51.486;6.332;2023-06-26T10:45:42;4.55;;;1.10;;
75639;SDS011;64233;51.486;6.332;2023-06-26T10:48:14;5.38;;;1.27;;
75639;SDS011;64233;51.486;6.332;2023-06-26T10:50:40;3.15;;;1.45;;
75639;SDS011;64233;51.486;6.332;2023-06-26T10:56:03;1.70;;;1.00;;
75639;SDS011;64233;51.486;6.332;2023-06-26T10:58:42;3.03;;;0.80;;
75639;SDS011;64233;51.486;6.332;2023-06-26T11:01:25;5.55;;;1.00;;
75639;SDS011;64233;51.486;6.332;2023-06-26T11:06:28;4.55;;;0.90;;
75639;SDS011;64233;51.486;6.332;2023-06-26T11:09:00;3.83;;;1.27;;
75639;SDS011;64233;51.486;6.332;2023-06-26T11:14:29;1.33;;;0.70;;
75639;SDS011;64233;51.486;6.332;2023-06-26T11:16:56;3.10;;;0.90;;
75639;SDS011;64233;51.486;6.332;2023-06-26T11:19:22;1.23;;;0.80;;
75639;SDS011;64233;51.486;6.332;2023-06-26T11:21:47;1.30;;;0.80;;
75639;SDS011;64233;51.486;6.332;2023-06-26T11:24:13;5.00;;;0.95;;
75639;SDS011;64233;51.486;6.332;2023-06-26T11:26:39;1.92;;;0.60;;
75639;SDS011;64233;51.486;6.332;2023-06-26T11:29:05;3.40;;;0.60;;
75639;SDS011;64233;51.486;6.332;2023-06-26T11:31:31;5.25;;;1.13;;
75639;SDS011;64233;51.486;6.332;2023-06-26T11:34:06;3.00;;;0.98;;
75639;SDS011;64233;51.486;6.332;2023-06-26T11:36:35;5.50;;;0.77;;
75639;SDS011;64233;51.486;6.332;2023-06-26T11:39:02;3.25;;;1.17;;
75639;SDS011;64233;51.486;6.332;2023-06-26T11:41:31;5.35;;;0.80;;
75639;SDS011;64233;51.486;6.332;2023-06-26T11:44:05;3.47;;;0.93;;
75639;SDS011;64233;51.486;6.332;2023-06-26T11:46:31;2.13;;;1.08;;
75639;SDS011;64233;51.486;6.332;2023-06-26T11:48:58;5.80;;;1.20;;
75639;SDS011;64233;51.486;6.332;2023-06-26T11:51:26;2.85;;;0.70;;
75639;SDS011;64233;51.486;6.332;2023-06-26T11:53:52;2.65;;;1.52;;
75639;SDS011;64233;51.486;6.332;2023-06-26T11:56:18;0.60;;;0.50;;
75639;SDS011;64233;51.486;6.332;2023-06-26T11:58:57;2.95;;;0.80;;
75639;SDS011;64233;51.486;6.332;2023-06-26T12:01:31;3.08;;;0.93;;
75639;SDS011;64233;51.486;6.332;2023-06-26T12:03:58;3.53;;;0.73;;
75639;SDS011;64233;51.486;6.332;2023-06-26T12:06:26;8.35;;;2.25;;
75639;SDS011;64233;51.486;6.332;2023-06-26T12:08:52;5.47;;;0.82;;
75639;SDS011;64233;51.486;6.332;2023-06-26T12:11:18;2.70;;;0.98;;
75639;SDS011;64233;51.486;6.332;2023-06-26T12:13:45;1.40;;;1.02;;
75639;SDS011;64233;51.486;6.332;2023-06-26T12:16:11;2.35;;;0.88;;
75639;SDS011;64233;51.486;6.332;2023-06-26T12:18:37;1.55;;;0.60;;
75639;SDS011;64233;51.486;6.332;2023-06-26T12:21:03;6.97;;;0.65;;
75639;SDS011;64233;51.486;6.332;2023-06-26T12:23:32;5.60;;;1.13;;
75639;SDS011;64233;51.486;6.332;2023-06-26T12:26:19;2.20;;;0.63;;
75639;SDS011;64233;51.486;6.332;2023-06-26T12:28:46;1.50;;;0.63;;
75639;SDS011;64233;51.486;6.332;2023-06-26T12:31:12;2.10;;;0.77;;
75639;SDS011;64233;51.486;6.332;2023-06-26T12:33:42;1.17;;;0.70;;
75639;SDS011;64233;51.486;6.332;2023-06-26T12:36:12;4.90;;;0.73;;
75639;SDS011;64233;51.486;6.332;2023-06-26T12:38:38;2.58;;;0.60;;
75639;SDS011;64233;51.486;6.332;2023-06-26T12:41:03;3.80;;;1.00;;
75639;SDS011;64233;51.486;6.332;2023-06-26T12:43:29;4.03;;;1.10;;
75639;SDS011;64233;51.486;6.332;2023-06-26T12:45:57;1.67;;;0.77;;
75639;SDS011;64233;51.486;6.332;2023-06-26T12:48:36;1.13;;;0.57;;
75639;SDS011;64233;51.486;6.332;2023-06-26T12:51:12;2.17;;;0.93;;
75639;SDS011;64233;51.486;6.332;2023-06-26T12:53:40;0.93;;;0.82;;
75639;SDS011;64233;51.486;6.332;2023-06-26T12:56:05;1.52;;;0.68;;
75639;SDS011;64233;51.486;6.332;2023-06-26T12:58:32;2.97;;;0.73;;
75639;SDS011;64233;51.486;6.332;2023-06-26T13:00:57;2.63;;;1.45;;
75639;SDS011;64233;51.486;6.332;2023-06-26T13:03:22;1.53;;;0.93;;
75639;SDS011;64233;51.486;6.332;2023-06-26T13:05:48;2.08;;;0.90;;
75639;SDS011;64233;51.486;6.332;2023-06-26T13:08:13;5.07;;;1.60;;
75639;SDS011;64233;51.486;6.332;2023-06-26T13:10:42;1.90;;;0.65;;
75639;SDS011;64233;51.486;6.332;2023-06-26T13:13:07;3.03;;;0.95;;
75639;SDS011;64233;51.486;6.332;2023-06-26T13:15:33;1.38;;;0.73;;
75639;SDS011;64233;51.486;6.332;2023-06-26T13:17:58;1.50;;;0.60;;
75639;SDS011;64233;51.486;6.332;2023-06-26T13:20:24;3.43;;;0.97;;
75639;SDS011;64233;51.486;6.332;2023-06-26T13:22:49;2.03;;;0.97;;
75639;SDS011;64233;51.486;6.332;2023-06-26T13:25:14;3.03;;;0.77;;
75639;SDS011;64233;51.486;6.332;2023-06-26T13:27:40;5.18;;;1.08;;
75639;SDS011;64233;51.486;6.332;2023-06-26T13:30:05;1.40;;;0.87;;
75639;SDS011;64233;51.486;6.332;2023-06-26T13:32:31;1.33;;;0.55;;
75639;SDS011;64233;51.486;6.332;2023-06-26T13:34:56;1.03;;;0.50;;
75639;SDS011;64233;51.486;6.332;2023-06-26T13:37:22;1.00;;;0.70;;
75639;SDS011;64233;51.486;6.332;2023-06-26T13:39:48;3.00;;;0.63;;
75639;SDS011;64233;51.486;6.332;2023-06-26T13:42:15;2.20;;;1.00;;
75639;SDS011;64233;51.486;6.332;2023-06-26T13:44:41;1.27;;;0.55;;
75639;SDS011;64233;51.486;6.332;2023-06-26T13:47:07;2.13;;;1.08;;
75639;SDS011;64233;51.486;6.332;2023-06-26T13:49:32;3.28;;;1.13;;
75639;SDS011;64233;51.486;6.332;2023-06-26T13:51:57;3.60;;;0.70;;
75639;SDS011;64233;51.486;6.332;2023-06-26T13:54:23;1.83;;;1.10;;
75639;SDS011;64233;51.486;6.332;2023-06-26T13:56:48;1.83;;;0.70;;
75639;SDS011;64233;51.486;6.332;2023-06-26T13:59:13;2.63;;;1.00;;
75639;SDS011;64233;51.486;6.332;2023-06-26T14:01:39;1.77;;;0.60;;
75639;SDS011;64233;51.486;6.332;2023-06-26T14:04:07;2.85;;;0.50;;
75639;SDS011;64233;51.486;6.332;2023-06-26T14:06:32;3.03;;;0.88;;
75639;SDS011;64233;51.486;6.332;2023-06-26T14:08:59;1.08;;;0.65;;
75639;SDS011;64233;51.486;6.332;2023-06-26T14:11:24;2.03;;;0.65;;
75639;SDS011;64233;51.486;6.332;2023-06-26T14:13:50;2.22;;;0.70;;
75639;SDS011;64233;51.486;6.332;2023-06-26T14:16:15;5.17;;;1.30;;
75639;SDS011;64233;51.486;6.332;2023-06-26T14:18:43;1.52;;;0.88;;
75639;SDS011;64233;51.486;6.332;2023-06-26T14:21:08;2.50;;;0.82;;
75639;SDS011;64233;51.486;6.332;2023-06-26T14:23:34;1.20;;;0.63;;
75639;SDS011;64233;51.486;6.332;2023-06-26T14:26:00;2.35;;;1.10;;
75639;SDS011;64233;51.486;6.332;2023-06-26T14:28:25;1.17;;;0.52;;
75639;SDS011;64233;51.486;6.332;2023-06-26T14:30:50;3.70;;;0.70;;
75639;SDS011;64233;51.486;6.332;2023-06-26T14:33:16;3.17;;;1.00;;
75639;SDS011;64233;51.486;6.332;2023-06-26T14:35:41;0.70;;;0.60;;
75639;SDS011;64233;51.486;6.332;2023-06-26T14:38:06;4.70;;;0.90;;
75639;SDS011;64233;51.486;6.332;2023-06-26T14:40:31;2.17;;;0.83;;
75639;SDS011;64233;51.486;6.332;2023-06-26T14:42:57;1.87;;;0.40;;
75639;SDS011;64233;51.486;6.332;2023-06-26T14:45:22;5.82;;;1.02;;
75639;SDS011;64233;51.486;6.332;2023-06-26T14:47:47;5.32;;;1.25;;
75639;SDS011;64233;51.486;6.332;2023-06-26T14:50:12;2.23;;;0.50;;
75639;SDS011;64233;51.486;6.332;2023-06-26T14:52:38;5.70;;;0.98;;
75639;SDS011;64233;51.486;6.332;2023-06-26T14:55:03;1.05;;;0.70;;
75639;SDS011;64233;51.486;6.332;2023-06-26T14:57:29;0.75;;;0.50;;
75639;SDS011;64233;51.486;6.332;2023-06-26T14:59:55;6.03;;;0.82;;
75639;SDS011;64233;51.486;6.332;2023-06-26T15:02:20;4.75;;;0.80;;